createdAt,value
2023-05-17T00:10:42.791Z,12.68
2023-05-17T00:16:05.803Z,15.45
2023-05-17T00:21:31.717Z,12.57
2023-05-17T00:26:51.795Z,15.82
2023-05-17T00:32:20.820Z,13.43
2023-05-17T00:43:05.763Z,15.93
2023-05-17T00:48:28.880Z,15.98
2023-05-17T00:53:55.914Z,14.95
2023-05-17T00:59:15.911Z,14.48
2023-05-17T01:04:47.048Z,14.80
2023-05-17T01:10:07.806Z,12.98
2023-05-17T01:15:36.812Z,15.55
2023-05-17T01:26:28.746Z,17.02
2023-05-17T01:31:55.846Z,13.05
2023-05-17T01:37:21.719Z,14.13
2023-05-17T01:42:46.746Z,14.82
2023-05-17T01:48:23.786Z,14.75
2023-05-17T01:53:47.731Z,15.52
2023-05-17T01:59:21.750Z,15.88
2023-05-17T02:04:56.734Z,15.20
2023-05-17T02:10:24.741Z,14.50
2023-05-17T02:15:44.764Z,14.43
2023-05-17T02:21:13.718Z,14.20
2023-05-17T02:26:33.715Z,14.48
2023-05-17T02:31:59.702Z,12.82
2023-05-17T02:37:22.735Z,12.70
2023-05-17T02:42:48.714Z,14.50
2023-05-17T02:48:08.772Z,13.52
2023-05-17T02:53:37.720Z,13.10
2023-05-17T02:58:57.749Z,12.23
2023-05-17T03:04:30.760Z,10.80
2023-05-17T03:10:00.707Z,14.02
2023-05-17T03:15:20.762Z,13.07
2023-05-17T03:20:46.661Z,12.98
2023-05-17T03:26:08.739Z,12.73
2023-05-17T03:31:34.709Z,12.70
2023-05-17T03:36:55.674Z,13.18
2023-05-17T03:42:24.688Z,11.75
2023-05-17T03:47:44.675Z,12.80
2023-05-17T03:53:10.664Z,12.73
2023-05-17T03:58:33.696Z,12.80
2023-05-17T04:04:08.674Z,10.48
2023-05-17T04:09:34.648Z,12.45
2023-05-17T04:14:57.641Z,13.93
2023-05-17T04:20:24.805Z,14.77
2023-05-17T04:25:44.661Z,12.27
2023-05-17T04:31:13.675Z,11.85
2023-05-17T04:36:33.639Z,11.43
2023-05-17T04:41:59.642Z,12.00
2023-05-17T04:47:22.746Z,12.63
2023-05-17T04:52:49.609Z,11.88
2023-05-17T04:58:09.644Z,10.07
2023-05-17T07:19:40.902Z,15.25
2023-05-17T07:25:00.850Z,13.25
2023-05-17T07:30:29.903Z,12.57
2023-05-17T07:35:49.892Z,14.05
2023-05-17T07:41:17.844Z,12.20
2023-05-17T07:46:39.874Z,11.75
2023-05-17T07:52:05.884Z,13.45
2023-05-17T07:57:26.856Z,11.73
2023-05-17T08:02:55.889Z,10.80
2023-05-17T08:08:16.841Z,11.93
2023-05-17T08:13:42.824Z,10.73
2023-05-17T08:19:07.870Z,13.10
2023-05-17T08:24:33.866Z,14.55
2023-05-17T08:29:53.803Z,19.15
2023-05-17T08:35:22.791Z,16.00
2023-05-17T08:40:42.860Z,10.52
2023-05-17T08:46:11.817Z,10.48
2023-05-17T08:51:34.790Z,11.10
2023-05-17T08:57:02.848Z,10.55
2023-05-17T09:02:23.888Z,10.60
2023-05-17T09:07:53.800Z,9.98
2023-05-17T09:13:13.758Z,7.65
2023-05-17T09:18:49.896Z,7.75
2023-05-17T09:24:19.823Z,9.68
2023-05-17T09:29:39.803Z,8.00
2023-05-17T09:35:06.807Z,6.25
2023-05-17T09:40:39.740Z,8.68
2023-05-17T09:46:08.807Z,6.78
2023-05-17T09:51:28.772Z,6.47
2023-05-17T09:57:05.801Z,6.97
2023-05-17T10:02:26.830Z,5.97
2023-05-17T10:07:52.789Z,10.90
2023-05-17T10:13:16.705Z,6.35
2023-05-17T10:18:49.820Z,10.18
2023-05-17T10:24:17.766Z,7.13
2023-05-17T10:29:40.758Z,7.65
2023-05-17T10:35:11.957Z,6.68
2023-05-17T10:40:31.771Z,7.90
2023-05-17T10:46:00.747Z,7.03
2023-05-17T10:51:25.783Z,6.70
2023-05-17T10:56:52.758Z,6.75
2023-05-17T11:02:17.766Z,10.20
2023-05-17T11:07:44.740Z,8.50
2023-05-17T11:13:10.688Z,6.85
2023-05-17T11:18:36.969Z,7.30
2023-05-17T11:24:12.702Z,9.90
2023-05-17T11:29:39.725Z,7.80
2023-05-17T11:35:12.761Z,8.57
2023-05-17T11:40:37.709Z,7.32
2023-05-17T11:46:05.713Z,8.57
2023-05-17T11:51:28.661Z,8.02
2023-05-17T11:56:56.689Z,8.60
2023-05-17T12:02:17.733Z,8.20
2023-05-17T12:07:46.723Z,8.63
2023-05-17T12:13:06.740Z,7.45
2023-05-17T12:18:42.828Z,6.75
2023-05-17T12:24:12.673Z,8.05
2023-05-17T12:29:36.681Z,5.88
2023-05-17T12:35:02.632Z,5.15
2023-05-17T12:40:27.908Z,6.90
2023-05-17T12:45:54.665Z,6.47
2023-05-17T12:51:14.662Z,8.48
2023-05-17T12:56:43.673Z,5.53
2023-05-17T13:02:05.663Z,7.78
2023-05-17T13:07:34.733Z,7.32
2023-05-17T13:12:57.732Z,6.80
2023-05-17T13:18:31.719Z,7.68
2023-05-17T13:23:59.648Z,8.77
2023-05-17T13:29:35.253Z,17.15
2023-05-17T13:35:11.642Z,10.73
2023-05-17T13:40:39.627Z,8.68
2023-05-17T13:46:05.670Z,8.10
2023-05-17T13:51:32.890Z,10.38
2023-05-17T13:56:53.739Z,6.93
2023-05-17T14:02:22.699Z,8.02
2023-05-17T14:07:43.694Z,8.52
2023-05-17T14:13:10.646Z,8.40
2023-05-17T14:18:32.859Z,10.32
2023-05-17T14:23:59.620Z,9.68
2023-05-17T14:29:21.047Z,7.82
2023-05-17T14:34:57.577Z,8.38
2023-05-17T14:40:25.604Z,8.90
2023-05-17T14:45:45.614Z,10.13
2023-05-17T14:51:14.619Z,10.07
2023-05-17T14:56:37.031Z,7.53
2023-05-17T15:02:08.620Z,7.40
2023-05-17T15:07:31.727Z,7.20
2023-05-17T15:12:59.550Z,9.15
2023-05-17T15:18:20.554Z,7.82
2023-05-17T15:23:49.558Z,8.90
2023-05-17T15:29:09.581Z,11.57
2023-05-17T15:34:47.153Z,7.25
2023-05-17T15:40:26.761Z,8.90
2023-05-17T15:45:51.952Z,8.10
2023-05-17T15:51:24.728Z,8.48
2023-05-17T15:56:56.125Z,7.40
2023-05-17T16:02:31.026Z,9.90
2023-05-17T16:07:57.918Z,9.70
2023-05-17T16:13:35.673Z,6.65
2023-05-17T16:19:05.532Z,8.90
2023-05-17T16:24:39.773Z,9.65
2023-05-17T16:30:09.665Z,7.95
2023-05-17T16:35:44.833Z,9.65
2023-05-17T16:41:12.569Z,10.57
2023-05-17T16:46:54.741Z,11.35
2023-05-17T16:57:54.304Z,10.68
2023-05-17T17:03:31.014Z,11.07
2023-05-17T17:08:54.773Z,11.10
2023-05-17T17:14:28.562Z,11.27
2023-05-17T17:19:58.433Z,12.38
2023-05-17T17:25:33.238Z,10.93
2023-05-17T17:31:00.947Z,11.32
2023-05-17T17:36:37.539Z,15.43
2023-05-17T17:42:04.375Z,15.80
2023-05-17T17:47:43.036Z,14.23
2023-05-17T17:53:20.446Z,19.42
2023-05-17T17:58:47.157Z,15.45
2023-05-17T18:04:20.344Z,11.55
2023-05-17T18:09:44.646Z,11.20
2023-05-17T18:15:14.376Z,12.50
2023-05-17T18:20:38.642Z,11.73
2023-05-17T18:26:12.814Z,12.20
2023-05-17T18:31:35.535Z,11.55
2023-05-17T18:37:08.077Z,11.20
2023-05-17T18:42:33.617Z,12.20
2023-05-17T18:48:08.781Z,11.52
2023-05-17T18:53:39.974Z,11.52
2023-05-17T18:59:08.359Z,11.45
2023-05-17T19:04:42.750Z,11.48
2023-05-17T19:10:07.390Z,11.40
2023-05-17T19:15:42.800Z,10.10
2023-05-17T19:21:09.678Z,10.65
2023-05-17T19:26:44.774Z,10.85
2023-05-17T19:32:15.201Z,10.45
2023-05-17T19:37:49.564Z,9.85
2023-05-17T19:43:15.586Z,11.13
2023-05-17T19:48:49.454Z,9.90
2023-05-17T19:54:13.182Z,9.85
2023-05-17T19:59:42.223Z,9.30
2023-05-17T20:05:07.943Z,10.05
2023-05-17T20:10:39.765Z,9.27
2023-05-17T20:16:05.935Z,8.68
2023-05-17T20:21:42.411Z,9.90
2023-05-17T20:27:08.015Z,9.50
2023-05-17T20:32:36.835Z,9.60
2023-05-17T20:38:02.983Z,9.10
2023-05-17T20:43:37.042Z,9.57
2023-05-17T20:49:04.727Z,8.63
2023-05-17T20:54:40.343Z,9.65
2023-05-17T21:00:07.415Z,8.68
2023-05-17T21:05:45.229Z,8.70
2023-05-17T21:11:08.324Z,8.35
2023-05-17T21:16:34.429Z,8.85
2023-05-17T21:21:54.340Z,8.18
2023-05-17T21:27:23.294Z,8.27
2023-05-17T21:32:48.227Z,8.55
2023-05-17T21:38:18.084Z,8.18
2023-05-17T21:43:41.856Z,7.47
2023-05-17T21:49:11.116Z,7.90
2023-05-17T21:54:32.914Z,7.70
2023-05-17T22:00:06.523Z,7.20
2023-05-17T22:05:34.398Z,6.53
2023-05-17T22:11:01.365Z,7.68
2023-05-17T22:16:24.357Z,7.57
2023-05-17T22:21:51.326Z,7.30
2023-05-17T22:27:11.293Z,7.75
2023-05-17T22:32:40.487Z,7.40
2023-05-17T22:38:00.289Z,6.90
2023-05-17T22:43:28.328Z,6.38
2023-05-17T22:48:51.302Z,6.65
2023-05-17T22:54:24.362Z,6.65
2023-05-17T22:59:51.346Z,5.68
2023-05-17T23:05:14.371Z,6.03
2023-05-17T23:10:40.294Z,5.10
2023-05-17T23:16:00.259Z,4.63
2023-05-17T23:21:29.298Z,4.43
2023-05-17T23:26:49.265Z,4.20
2023-05-17T23:32:16.280Z,3.78
2023-05-17T23:37:39.269Z,3.95
2023-05-17T23:43:05.282Z,3.45
2023-05-17T23:48:28.241Z,3.35
2023-05-17T23:54:04.273Z,3.15
2023-05-17T23:59:31.232Z,3.40
